createdAt,value
2022-10-20T02:15:10.684Z,5.30
2022-10-20T02:21:06.748Z,4.10
2022-10-20T02:23:36.622Z,4.20
2022-10-20T02:26:05.526Z,4.20
2022-10-20T02:28:33.524Z,4.40
2022-10-20T02:31:00.080Z,4.40
2022-10-20T02:33:26.714Z,4.40
2022-10-20T02:35:57.797Z,4.30
2022-10-20T02:38:24.479Z,4.30
2022-10-20T02:40:51.050Z,4.10
2022-10-20T02:43:17.654Z,4.00
2022-10-20T02:45:44.226Z,3.90
2022-10-20T02:48:10.766Z,4.00
2022-10-20T02:50:37.418Z,4.10
2022-10-20T02:53:04.621Z,4.10
2022-10-20T02:55:31.432Z,4.10
2022-10-20T02:57:58.092Z,4.20
2022-10-20T03:00:24.719Z,4.30
2022-10-20T03:02:52.096Z,4.30
2022-10-20T03:05:18.791Z,4.40
2022-10-20T03:07:45.334Z,4.30
2022-10-20T03:10:11.863Z,4.20
2022-10-20T03:12:38.390Z,4.30
2022-10-20T03:15:05.235Z,4.30
2022-10-20T03:17:31.781Z,4.30
2022-10-20T03:19:58.347Z,4.30
2022-10-20T03:22:24.967Z,4.20
2022-10-20T03:24:51.545Z,4.00
2022-10-20T03:27:18.164Z,3.90
2022-10-20T03:29:44.682Z,3.90
2022-10-20T03:32:11.210Z,3.90
2022-10-20T03:34:37.761Z,3.80
2022-10-20T03:37:04.358Z,3.70
2022-10-20T03:39:30.902Z,3.50
2022-10-20T03:41:57.930Z,3.30
2022-10-20T03:44:24.641Z,3.40
2022-10-20T03:46:51.198Z,3.80
2022-10-20T03:49:17.798Z,3.30
2022-10-20T03:51:44.354Z,3.20
2022-10-20T03:54:10.887Z,3.00
2022-10-20T03:56:37.448Z,3.10
2022-10-20T04:01:31.283Z,3.10
2022-10-20T04:03:57.946Z,3.20
2022-10-20T04:06:24.581Z,3.30
2022-10-20T04:08:51.227Z,3.30
2022-10-20T04:11:17.896Z,3.40
2022-10-20T04:13:44.473Z,3.40
2022-10-20T04:16:11.025Z,3.50
2022-10-20T04:18:38.555Z,3.30
2022-10-20T04:21:05.184Z,3.20
2022-10-20T04:23:31.810Z,3.30
2022-10-20T04:25:58.425Z,3.20
2022-10-20T04:28:24.992Z,3.10
2022-10-20T04:30:51.546Z,2.90
2022-10-20T04:33:18.148Z,3.00
2022-10-20T04:35:44.883Z,3.00
2022-10-20T04:38:11.475Z,3.10
2022-10-20T04:40:38.012Z,3.00
2022-10-20T04:43:04.601Z,3.00
2022-10-20T04:45:31.166Z,3.00
2022-10-20T04:47:57.742Z,3.10
2022-10-20T04:50:24.310Z,3.00
2022-10-20T04:52:51.353Z,3.00
2022-10-20T04:55:18.258Z,3.10
2022-10-20T04:57:44.857Z,3.10
2022-10-20T05:00:11.671Z,3.20
2022-10-20T05:02:38.223Z,3.20
2022-10-20T05:05:04.953Z,3.20
2022-10-20T05:07:31.629Z,3.10
2022-10-20T05:09:58.192Z,3.10
2022-10-20T05:12:24.755Z,3.10
2022-10-20T05:14:51.291Z,3.00
2022-10-20T05:17:17.842Z,2.90
2022-10-20T05:19:45.704Z,3.00
2022-10-20T05:22:12.243Z,2.80
2022-10-20T05:24:38.850Z,2.70
2022-10-20T05:27:05.406Z,2.60
2022-10-20T05:29:32.050Z,2.50
2022-10-20T05:31:58.618Z,2.60
2022-10-20T05:34:25.330Z,2.70
2022-10-20T05:36:55.104Z,2.90
2022-10-20T05:39:21.910Z,2.80
2022-10-20T05:41:48.466Z,3.00
2022-10-20T05:44:15.075Z,2.80
2022-10-20T05:46:42.550Z,2.80
2022-10-20T05:49:14.148Z,2.90
2022-10-20T05:51:40.832Z,2.90
2022-10-20T05:54:07.386Z,3.10
2022-10-20T05:56:34.318Z,3.20
2022-10-20T05:59:00.902Z,3.10
2022-10-20T06:01:38.657Z,3.00
2022-10-20T06:04:08.468Z,3.00
2022-10-20T06:06:36.121Z,3.00
2022-10-20T06:09:04.721Z,3.00
2022-10-20T06:11:32.944Z,2.90
2022-10-20T06:14:04.118Z,3.00
2022-10-20T06:16:32.664Z,3.10
2022-10-20T06:18:59.614Z,3.10
2022-10-20T06:21:27.988Z,3.10
2022-10-20T06:23:54.550Z,3.20
2022-10-20T06:26:24.924Z,3.20
2022-10-20T06:28:53.171Z,3.30
2022-10-20T06:31:21.281Z,3.40
2022-10-20T06:33:48.162Z,3.60
2022-10-20T06:36:15.328Z,3.70
2022-10-20T06:38:42.387Z,3.80
2022-10-20T06:41:10.067Z,3.90
2022-10-20T06:43:36.756Z,4.10
2022-10-20T06:46:07.793Z,4.30
2022-10-20T06:48:35.310Z,4.40
2022-10-20T06:51:03.434Z,4.60
2022-10-20T06:53:30.836Z,4.60
2022-10-20T06:55:57.432Z,4.80
2022-10-20T06:58:24.094Z,4.80
2022-10-20T07:01:06.939Z,5.00
2022-10-20T07:03:37.173Z,5.20
2022-10-20T07:06:04.169Z,5.40
2022-10-20T07:08:31.734Z,5.60
2022-10-20T07:11:08.836Z,5.70
2022-10-20T07:13:36.114Z,5.80
2022-10-20T07:16:02.989Z,6.00
2022-10-20T07:18:30.299Z,6.20
2022-10-20T07:21:01.217Z,6.40
2022-10-20T07:23:28.497Z,6.60
2022-10-20T07:26:01.314Z,6.70
2022-10-20T07:28:28.214Z,6.80
2022-10-20T07:30:54.838Z,7.00
2022-10-20T07:35:49.419Z,7.10
2022-10-20T07:38:16.328Z,7.30
2022-10-20T07:40:42.908Z,7.40
2022-10-20T07:43:09.544Z,7.40
2022-10-20T07:45:36.165Z,7.60
2022-10-20T07:48:04.236Z,7.80
2022-10-20T07:50:30.910Z,7.90
2022-10-20T07:52:57.558Z,8.00
2022-10-20T07:55:38.260Z,8.10
2022-10-20T07:58:05.829Z,8.00
2022-10-20T08:00:32.542Z,10.50
2022-10-20T08:02:59.166Z,8.60
2022-10-20T08:05:26.709Z,8.80
2022-10-20T08:07:53.325Z,9.00
2022-10-20T08:10:19.887Z,9.10
2022-10-20T08:12:46.484Z,9.00
2022-10-20T08:15:13.138Z,8.50
2022-10-20T08:17:41.530Z,9.30
2022-10-20T08:20:12.508Z,10.00
2022-10-20T08:22:39.441Z,9.50
2022-10-20T08:25:06.288Z,9.50
2022-10-20T08:27:32.900Z,9.60
2022-10-20T08:30:06.356Z,9.40
2022-10-20T08:32:39.351Z,10.10
2022-10-20T08:35:08.645Z,10.70
2022-10-20T08:37:40.040Z,10.30
2022-10-20T08:40:06.940Z,10.40
2022-10-20T08:42:36.950Z,10.50
2022-10-20T08:47:33.489Z,10.90
2022-10-20T08:50:00.977Z,11.30
2022-10-20T08:52:39.140Z,10.70
2022-10-20T08:55:09.230Z,11.40
2022-10-20T08:57:36.643Z,11.40
2022-10-20T09:00:33.432Z,12.60
2022-10-20T09:07:54.602Z,11.80
2022-10-20T09:10:35.822Z,11.60
2022-10-20T09:13:03.248Z,12.10
2022-10-20T09:15:29.909Z,13.00
2022-10-20T09:18:00.545Z,11.30
2022-10-20T09:20:36.019Z,12.00
2022-10-20T09:23:07.901Z,12.10
2022-10-20T09:25:38.530Z,12.40
2022-10-20T09:28:05.161Z,12.60
2022-10-20T09:33:00.825Z,12.60
2022-10-20T09:35:28.753Z,12.60
2022-10-20T09:37:57.920Z,12.50
2022-10-20T09:40:27.619Z,12.70
2022-10-20T09:42:55.606Z,12.90
2022-10-20T09:47:53.683Z,13.20
2022-10-20T09:50:25.876Z,13.30
2022-10-20T09:52:52.540Z,13.30
2022-10-20T09:55:27.817Z,13.40
2022-10-20T10:00:36.279Z,13.80
2022-10-20T10:03:24.096Z,13.90
2022-10-20T10:05:58.290Z,13.90
2022-10-20T10:08:27.133Z,14.20
2022-10-20T10:11:01.551Z,14.10
2022-10-20T10:13:29.649Z,13.90
2022-10-20T10:16:00.841Z,14.10
2022-10-20T10:18:27.830Z,13.80
2022-10-20T10:21:15.490Z,13.80
2022-10-20T10:23:55.760Z,13.90
2022-10-20T10:26:37.689Z,14.00
2022-10-20T10:29:04.276Z,14.30
2022-10-20T10:31:32.315Z,14.20
2022-10-20T10:34:14.253Z,14.30
2022-10-20T10:36:40.891Z,14.20
2022-10-20T10:39:11.782Z,14.40
2022-10-20T10:44:31.511Z,14.40
2022-10-20T10:47:08.000Z,14.30
2022-10-20T10:49:37.556Z,14.30
2022-10-20T10:52:07.103Z,14.60
2022-10-20T10:54:36.706Z,14.40
2022-10-20T10:57:12.939Z,14.60
2022-10-20T10:59:43.647Z,14.80
2022-10-20T11:02:50.098Z,14.60
2022-10-20T11:09:19.712Z,14.70
2022-10-20T11:11:49.443Z,14.90
2022-10-20T11:14:16.067Z,14.90
2022-10-20T11:16:42.672Z,14.80
2022-10-20T11:19:09.232Z,14.60
2022-10-20T11:21:42.089Z,15.20
2022-10-20T11:24:11.798Z,14.70
2022-10-20T11:26:42.826Z,14.80
2022-10-20T11:29:27.781Z,15.10
2022-10-20T11:32:08.967Z,15.30
2022-10-20T11:34:46.590Z,15.60
2022-10-20T11:37:28.976Z,15.60
2022-10-20T11:40:04.540Z,15.50
2022-10-20T11:42:34.566Z,16.50
2022-10-20T11:45:01.953Z,15.60
2022-10-20T11:47:36.058Z,15.60
2022-10-20T11:50:07.825Z,15.70
2022-10-20T11:52:48.799Z,15.40
2022-10-20T11:55:23.216Z,15.30
2022-10-20T11:58:14.086Z,16.00
2022-10-20T12:00:58.936Z,15.30
2022-10-20T12:03:35.616Z,15.30
2022-10-20T12:06:20.884Z,15.30
2022-10-20T12:08:47.544Z,15.30
2022-10-20T12:11:14.091Z,15.40
2022-10-20T12:14:00.992Z,15.80
2022-10-20T12:16:46.391Z,15.70
2022-10-20T12:19:17.377Z,15.80
2022-10-20T12:21:57.735Z,15.80
2022-10-20T12:24:36.255Z,15.80
2022-10-20T12:27:08.990Z,16.00
2022-10-20T12:29:35.599Z,16.00
2022-10-20T12:32:21.111Z,16.20
2022-10-20T12:34:48.837Z,16.00
2022-10-20T12:37:19.397Z,16.30
2022-10-20T12:39:46.890Z,15.60
2022-10-20T12:42:32.955Z,15.70
2022-10-20T12:45:03.430Z,15.30
2022-10-20T12:47:31.414Z,15.50
2022-10-20T12:50:08.094Z,15.50
2022-10-20T12:52:36.354Z,15.00
2022-10-20T12:55:05.895Z,15.20
2022-10-20T12:57:35.492Z,15.80
2022-10-20T13:00:03.514Z,15.90
2022-10-20T13:02:31.293Z,15.40
2022-10-20T13:05:01.505Z,15.70
2022-10-20T13:07:46.483Z,15.20
2022-10-20T13:10:22.182Z,15.30
2022-10-20T13:12:48.765Z,15.30
2022-10-20T13:15:18.004Z,15.70
2022-10-20T13:17:57.311Z,15.50
2022-10-20T13:20:23.921Z,15.30
2022-10-20T13:22:52.481Z,15.40
2022-10-20T13:25:22.183Z,15.50
2022-10-20T13:27:49.721Z,15.40
2022-10-20T13:30:21.398Z,15.30
2022-10-20T13:33:10.885Z,15.40
2022-10-20T13:35:47.054Z,15.30
2022-10-20T13:38:20.236Z,15.30
2022-10-20T13:41:05.693Z,15.30
2022-10-20T13:43:35.346Z,15.40
2022-10-20T13:46:01.941Z,15.40
2022-10-20T13:48:40.734Z,15.60
2022-10-20T13:51:20.664Z,15.70
2022-10-20T13:53:50.087Z,15.80
2022-10-20T13:56:16.643Z,16.40
2022-10-20T13:58:59.874Z,16.50
2022-10-20T14:01:31.119Z,16.10
2022-10-20T14:03:57.814Z,16.50
2022-10-20T14:06:27.613Z,16.40
2022-10-20T14:08:58.143Z,16.00
2022-10-20T14:11:31.628Z,15.90
2022-10-20T14:13:59.533Z,15.70
2022-10-20T14:16:27.749Z,16.30
2022-10-20T14:19:05.910Z,16.20
2022-10-20T14:21:40.059Z,15.80
2022-10-20T14:24:07.107Z,16.40
2022-10-20T14:26:33.818Z,16.10
2022-10-20T14:29:02.214Z,16.10
2022-10-20T14:31:28.945Z,15.70
2022-10-20T14:33:55.578Z,16.10
2022-10-20T14:36:25.110Z,15.80
2022-10-20T14:38:53.123Z,15.80
2022-10-20T14:41:25.983Z,16.00
2022-10-20T14:43:54.922Z,15.70
2022-10-20T14:46:38.283Z,15.70
2022-10-20T14:49:12.687Z,15.70
2022-10-20T14:51:41.057Z,16.00
2022-10-20T14:54:19.850Z,16.30
2022-10-20T14:56:48.457Z,15.30
2022-10-20T14:59:16.193Z,15.20
2022-10-20T15:01:56.105Z,15.40
2022-10-20T15:04:26.539Z,15.00
2022-10-20T15:07:12.060Z,14.80
2022-10-20T15:09:39.525Z,14.80
2022-10-20T15:12:32.612Z,15.00
2022-10-20T15:15:05.300Z,14.70
2022-10-20T15:17:45.695Z,14.60
2022-10-20T15:20:34.070Z,14.60
2022-10-20T15:23:30.335Z,14.50
2022-10-20T15:26:02.780Z,14.50
2022-10-20T15:28:29.391Z,14.40
2022-10-20T15:30:56.526Z,14.30
2022-10-20T15:33:23.202Z,14.60
2022-10-20T15:35:50.698Z,13.80
2022-10-20T15:38:17.342Z,14.60
2022-10-20T15:40:43.991Z,14.30
2022-10-20T15:43:12.544Z,14.60
2022-10-20T15:45:40.501Z,14.00
2022-10-20T15:48:07.115Z,13.90
2022-10-20T15:50:33.789Z,14.00
2022-10-20T15:53:00.428Z,13.90
2022-10-20T15:55:35.007Z,13.90
2022-10-20T15:58:01.772Z,13.80
2022-10-20T16:00:29.003Z,14.10
2022-10-20T16:02:55.702Z,13.70
2022-10-20T16:05:23.447Z,14.20
2022-10-20T16:07:53.055Z,14.10
2022-10-20T16:10:21.557Z,13.60
2022-10-20T16:12:48.671Z,13.60
2022-10-20T16:15:15.354Z,13.70
2022-10-20T16:17:42.048Z,13.60
2022-10-20T16:20:09.128Z,13.30
2022-10-20T16:22:36.393Z,13.30
2022-10-20T16:25:03.890Z,13.30
2022-10-20T16:27:31.421Z,13.30
2022-10-20T16:29:58.113Z,13.80
2022-10-20T16:32:24.804Z,13.70
2022-10-20T16:34:51.578Z,13.20
2022-10-20T16:37:18.226Z,13.70
2022-10-20T16:39:44.862Z,13.70
2022-10-20T16:42:11.503Z,13.20
2022-10-20T16:44:38.195Z,13.70
2022-10-20T16:47:04.916Z,14.00
2022-10-20T16:49:31.556Z,14.00
2022-10-20T16:51:59.054Z,14.10
2022-10-20T16:54:25.707Z,14.10
2022-10-20T16:56:52.370Z,13.00
2022-10-20T16:59:19.119Z,14.30
2022-10-20T17:01:45.781Z,12.80
2022-10-20T17:04:12.428Z,13.60
2022-10-20T17:06:39.126Z,13.10
2022-10-20T17:09:05.908Z,14.40
2022-10-20T17:11:32.850Z,12.10
2022-10-20T17:13:59.802Z,14.60
2022-10-20T17:16:28.830Z,13.60
2022-10-20T17:18:59.989Z,14.50
2022-10-20T17:21:27.262Z,12.40
2022-10-20T17:23:53.927Z,12.80
2022-10-20T17:26:21.847Z,14.00
2022-10-20T17:28:52.134Z,13.80
2022-10-20T17:31:18.963Z,13.80
2022-10-20T17:33:45.641Z,13.10
2022-10-20T17:36:12.735Z,13.40
2022-10-20T17:38:40.645Z,13.50
2022-10-20T17:41:11.442Z,13.50
2022-10-20T17:43:38.383Z,12.60
2022-10-20T17:46:05.043Z,12.60
2022-10-20T17:48:32.027Z,12.20
2022-10-20T17:50:59.493Z,12.20
2022-10-20T17:53:26.267Z,12.70
2022-10-20T17:55:52.925Z,13.10
2022-10-20T17:58:19.554Z,12.60
2022-10-20T18:00:55.995Z,12.20
2022-10-20T18:03:23.008Z,12.20
2022-10-20T18:05:49.655Z,12.40
2022-10-20T18:08:16.327Z,13.20
2022-10-20T18:10:43.923Z,12.40
2022-10-20T18:13:10.937Z,12.30
2022-10-20T18:15:43.834Z,12.90
2022-10-20T18:18:10.500Z,12.30
2022-10-20T18:20:37.107Z,12.90
2022-10-20T18:23:03.790Z,12.20
2022-10-20T18:25:30.405Z,12.20
2022-10-20T18:27:57.182Z,12.60
2022-10-20T18:30:23.845Z,12.10
2022-10-20T18:32:50.499Z,12.50
2022-10-20T18:35:17.171Z,12.50
2022-10-20T18:37:44.949Z,12.30
2022-10-20T18:40:11.608Z,12.00
2022-10-20T18:42:38.255Z,12.00
2022-10-20T18:45:05.185Z,12.90
2022-10-20T18:47:31.822Z,11.90
2022-10-20T18:49:58.486Z,12.90
2022-10-20T18:52:25.156Z,12.00
2022-10-20T18:54:51.946Z,11.90
2022-10-20T18:57:18.590Z,12.40
2022-10-20T18:59:45.256Z,11.80
2022-10-20T19:02:12.075Z,12.00
2022-10-20T19:04:38.857Z,11.90
2022-10-20T19:07:06.007Z,11.90
2022-10-20T19:09:32.793Z,12.30
2022-10-20T19:12:00.923Z,11.80
2022-10-20T19:14:27.873Z,12.00
2022-10-20T19:16:54.562Z,11.80
2022-10-20T19:19:22.752Z,13.00
2022-10-20T19:21:49.386Z,12.00
2022-10-20T19:24:17.927Z,11.90
2022-10-20T19:26:52.787Z,11.90
2022-10-20T19:29:29.321Z,11.80
2022-10-20T19:31:57.138Z,11.80
2022-10-20T19:34:28.239Z,11.80
2022-10-20T19:36:55.082Z,11.80
2022-10-20T19:39:24.978Z,11.90
2022-10-20T19:41:51.894Z,11.80
2022-10-20T19:44:18.572Z,12.70
2022-10-20T19:46:46.239Z,12.40
2022-10-20T19:49:12.916Z,11.80
2022-10-20T19:51:39.771Z,11.80
2022-10-20T19:54:06.681Z,12.00
2022-10-20T19:56:33.841Z,11.90
2022-10-20T19:59:01.184Z,12.50
2022-10-20T20:01:27.890Z,12.00
2022-10-20T20:03:54.626Z,12.20
2022-10-20T20:06:21.810Z,11.90
2022-10-20T20:08:49.886Z,12.90
2022-10-20T20:11:23.922Z,12.00
2022-10-20T20:13:51.610Z,12.40
2022-10-20T20:16:18.297Z,12.70
2022-10-20T20:18:44.984Z,12.90
2022-10-20T20:21:11.786Z,12.90
2022-10-20T20:23:58.403Z,11.40
2022-10-20T20:26:25.936Z,12.90
2022-10-20T20:28:53.929Z,12.50
2022-10-20T20:31:21.210Z,11.80
2022-10-20T20:33:47.856Z,12.50
2022-10-20T20:36:14.564Z,12.20
2022-10-20T20:38:41.832Z,11.90
2022-10-20T20:41:10.809Z,12.60
2022-10-20T20:43:37.485Z,12.10
2022-10-20T20:46:05.450Z,12.00
2022-10-20T20:48:32.361Z,11.80
2022-10-20T20:50:59.921Z,12.40
2022-10-20T20:53:26.628Z,11.80
2022-10-20T20:55:54.312Z,11.70
2022-10-20T20:58:20.969Z,12.50
2022-10-20T21:00:47.645Z,11.80
2022-10-20T21:03:14.460Z,11.70
2022-10-20T21:05:41.131Z,12.30
2022-10-20T21:08:07.855Z,12.40
2022-10-20T21:10:37.705Z,12.50
2022-10-20T21:13:04.351Z,11.70
2022-10-20T21:15:31.034Z,12.10
2022-10-20T21:17:57.679Z,12.60
2022-10-20T21:20:24.311Z,12.50
2022-10-20T21:22:50.975Z,12.70
2022-10-20T21:25:17.638Z,12.00
2022-10-20T21:27:44.295Z,12.10
2022-10-20T21:30:11.005Z,11.90
2022-10-20T21:32:37.818Z,11.70
2022-10-20T21:35:04.759Z,11.30
2022-10-20T21:37:31.414Z,11.60
2022-10-20T21:39:58.059Z,11.40
2022-10-20T21:42:24.711Z,12.00
2022-10-20T21:44:51.368Z,11.60
2022-10-20T21:47:18.000Z,12.00
2022-10-20T21:49:44.691Z,11.50
2022-10-20T21:52:11.375Z,12.20
2022-10-20T21:54:38.032Z,12.20
2022-10-20T21:57:04.775Z,12.00
2022-10-20T21:59:31.446Z,11.90
2022-10-20T22:01:59.443Z,11.50
2022-10-20T22:04:26.883Z,12.00
2022-10-20T22:06:53.856Z,11.50
2022-10-20T22:09:21.166Z,11.50
2022-10-20T22:11:52.424Z,11.90
2022-10-20T22:14:19.199Z,11.50
2022-10-20T22:16:45.865Z,11.50
2022-10-20T22:19:16.938Z,11.60
2022-10-20T22:21:44.869Z,11.50
2022-10-20T22:24:11.840Z,12.40
2022-10-20T22:26:38.985Z,12.00
2022-10-20T22:29:06.669Z,11.50
2022-10-20T22:31:33.335Z,12.10
2022-10-20T22:34:00.014Z,11.20
2022-10-20T22:36:27.203Z,11.40
2022-10-20T22:38:54.054Z,11.40
2022-10-20T22:41:20.806Z,11.80
2022-10-20T22:43:47.575Z,12.10
2022-10-20T22:46:15.834Z,12.40
2022-10-20T22:48:42.535Z,12.40
2022-10-20T22:51:09.878Z,11.60
2022-10-20T22:53:37.145Z,12.40
2022-10-20T22:56:04.586Z,12.10
2022-10-20T22:58:31.256Z,12.50
2022-10-20T23:00:57.983Z,11.80
2022-10-20T23:03:24.687Z,11.80
2022-10-20T23:05:51.329Z,11.70
2022-10-20T23:08:18.007Z,11.90
2022-10-20T23:10:44.667Z,11.70
2022-10-20T23:13:11.323Z,11.60
2022-10-20T23:15:37.996Z,11.60
2022-10-20T23:18:04.673Z,11.60
2022-10-20T23:20:31.292Z,12.40
2022-10-20T23:22:57.934Z,12.70
2022-10-20T23:25:24.612Z,12.00
2022-10-20T23:27:51.326Z,12.00
2022-10-20T23:30:17.937Z,11.90
2022-10-20T23:32:44.603Z,11.80
2022-10-20T23:35:11.258Z,11.60
2022-10-20T23:37:38.357Z,12.60
2022-10-20T23:40:05.549Z,11.60
2022-10-20T23:42:32.266Z,11.50
2022-10-20T23:44:58.967Z,12.10
2022-10-20T23:47:25.642Z,12.10
2022-10-20T23:49:52.304Z,11.50
2022-10-20T23:52:18.973Z,11.90
2022-10-20T23:54:45.614Z,11.50
2022-10-20T23:57:12.293Z,11.90
2022-10-20T23:59:38.946Z,12.10
